Rowlett, Texas
Current Conditions -  °F | °C
As of 2:55 PM on Thursday 27 Nov 2014 (Local Time) from KF46 Reporting Station
Clear Clear  
Wind Chill: 59°   Ceiling: Unl
Heat Index: 59°   Visibility: 10mi
Dew Point: 21°   Wind: 0mph
Humidity: 23%   Direction: NA
Pressure: 30.42"   Gusts: NA
Location:  32.9°N, 96.57°W
Report Text: KF46 272055Z AUTO 00000KT 10SM CLR 15/M06 A3042 RMK AO2 T01491060
Loading
Personal Weather Stations






























Interactive Weather Map New forecast layout! Learn more

10-Day Weather Forecast

Advertisements
Track Severe Weather on mobile